createdAt,value
2018-08-19T00:00:59.551Z,87.10
2018-08-19T00:03:28.662Z,86.83
2018-08-19T00:05:57.303Z,87.36
2018-08-19T00:08:26.340Z,87.54
2018-08-19T00:11:01.939Z,87.76
2018-08-19T00:13:30.710Z,87.86
2018-08-19T00:15:59.487Z,87.56
2018-08-19T00:18:28.168Z,87.98
2018-08-19T00:20:57.404Z,88.48
2018-08-19T00:23:26.174Z,88.32
2018-08-19T00:25:54.845Z,88.00
2018-08-19T00:28:23.480Z,88.02
2018-08-19T00:30:52.105Z,88.01
2018-08-19T00:33:21.476Z,87.45
2018-08-19T00:35:50.480Z,86.97
2018-08-19T00:38:19.196Z,86.57
2018-08-19T00:40:47.860Z,86.74
2018-08-19T00:43:16.465Z,87.63
2018-08-19T00:45:45.081Z,87.21
2018-08-19T00:48:13.771Z,86.88
2018-08-19T00:50:42.752Z,86.88
2018-08-19T00:53:12.018Z,87.70
2018-08-19T00:55:45.964Z,87.91
2018-08-19T00:58:16.904Z,88.24
2018-08-19T01:00:45.584Z,88.58
2018-08-19T01:03:14.538Z,88.18
2018-08-19T01:05:43.238Z,88.28
2018-08-19T01:08:13.200Z,88.55
2018-08-19T01:10:42.052Z,89.12
2018-08-19T01:13:11.901Z,88.99
2018-08-19T01:15:40.659Z,88.64
2018-08-19T01:18:09.592Z,88.12
2018-08-19T01:20:38.264Z,88.78
2018-08-19T01:23:06.911Z,87.79
2018-08-19T01:25:35.552Z,87.93
2018-08-19T01:28:04.724Z,88.27
2018-08-19T01:30:33.356Z,88.56
2018-08-19T01:33:02.144Z,88.83
2018-08-19T01:35:37.868Z,88.91
2018-08-19T01:38:07.911Z,88.88
2018-08-19T01:40:36.706Z,89.65
2018-08-19T01:43:07.098Z,89.32
2018-08-19T01:45:35.985Z,89.51
2018-08-19T01:48:04.601Z,89.87
2018-08-19T01:50:33.221Z,89.74
2018-08-19T01:53:01.831Z,89.26
2018-08-19T01:55:31.368Z,89.13
2018-08-19T01:57:59.997Z,88.81
2018-08-19T02:00:28.648Z,90.03
2018-08-19T02:03:00.266Z,90.62
2018-08-19T02:05:28.987Z,90.66
2018-08-19T02:07:59.862Z,90.93
2018-08-19T02:10:29.363Z,90.20
2018-08-19T02:12:58.555Z,90.05
2018-08-19T02:15:28.202Z,90.01
2018-08-19T02:17:57.661Z,89.55
2018-08-19T02:20:32.187Z,89.79
2018-08-19T02:23:02.048Z,89.14
2018-08-19T02:25:34.015Z,89.05
2018-08-19T02:28:03.412Z,88.90
2018-08-19T02:30:32.060Z,89.13
2018-08-19T02:35:27.398Z,88.92
2018-08-19T02:37:56.021Z,88.73
2018-08-19T02:40:31.626Z,88.94
2018-08-19T02:43:00.282Z,89.27
2018-08-19T02:45:28.925Z,89.21
2018-08-19T02:47:57.588Z,89.07
2018-08-19T02:50:26.297Z,89.69
2018-08-19T02:52:54.946Z,89.42
2018-08-19T02:55:25.868Z,89.49
2018-08-19T02:57:59.855Z,89.55
2018-08-19T03:00:28.516Z,89.60
2018-08-19T03:02:57.492Z,89.93
2018-08-19T03:05:26.090Z,90.31
2018-08-19T03:07:55.455Z,90.72
2018-08-19T03:10:24.099Z,90.82
2018-08-19T03:12:52.748Z,90.99
2018-08-19T03:15:21.424Z,91.05
2018-08-19T03:17:50.413Z,91.09
2018-08-19T03:20:19.301Z,90.72
2018-08-19T03:22:47.938Z,90.83
2018-08-19T03:25:16.888Z,91.10
2018-08-19T03:27:45.482Z,91.21
2018-08-19T03:30:15.493Z,90.51
2018-08-19T03:32:50.260Z,89.92
2018-08-19T03:35:20.924Z,89.76
2018-08-19T03:37:53.253Z,90.01
2018-08-19T03:40:25.002Z,90.09
2018-08-19T03:42:53.911Z,90.49
2018-08-19T03:45:22.819Z,90.21
2018-08-19T03:47:52.568Z,89.42
2018-08-19T03:50:23.706Z,89.16
2018-08-19T03:52:53.343Z,89.72
2018-08-19T03:55:33.209Z,89.74
2018-08-19T03:58:06.786Z,89.70
2018-08-19T04:00:38.680Z,89.28
2018-08-19T04:03:14.902Z,89.26
2018-08-19T04:05:46.003Z,88.67
2018-08-19T04:08:15.574Z,88.24
2018-08-19T04:10:45.442Z,87.74
2018-08-19T04:13:32.522Z,86.51
2018-08-19T04:16:02.261Z,86.51
2018-08-19T04:18:35.914Z,86.81
2018-08-19T04:21:08.105Z,86.71
2018-08-19T04:23:37.255Z,86.73
2018-08-19T04:26:06.085Z,86.79
2018-08-19T04:28:37.228Z,86.42
2018-08-19T04:31:12.090Z,85.98
2018-08-19T04:33:42.274Z,85.44
2018-08-19T04:36:12.383Z,85.49
2018-08-19T04:38:41.341Z,85.49
2018-08-19T04:41:10.025Z,84.97
2018-08-19T04:43:38.653Z,85.18
2018-08-19T04:46:07.314Z,83.84
2018-08-19T04:48:36.452Z,84.50
2018-08-19T04:51:05.361Z,83.03
2018-08-19T04:53:35.205Z,82.53
2018-08-19T04:56:04.144Z,81.84
2018-08-19T04:58:32.782Z,81.64
2018-08-19T05:01:01.505Z,79.76
2018-08-19T05:03:30.098Z,79.16
2018-08-19T05:05:59.789Z,78.93
2018-08-19T05:08:28.624Z,77.65
2018-08-19T05:10:57.294Z,76.70
2018-08-19T05:13:28.513Z,75.34
2018-08-19T05:15:57.888Z,75.68
2018-08-19T05:18:27.171Z,74.85
2018-08-19T05:21:01.449Z,72.83
2018-08-19T05:23:30.690Z,71.48
2018-08-19T05:25:59.968Z,71.07
2018-08-19T05:28:29.211Z,68.54
2018-08-19T05:30:58.390Z,66.42
2018-08-19T05:33:27.632Z,65.14
2018-08-19T05:35:57.460Z,64.00
2018-08-19T05:38:26.745Z,60.47
2018-08-19T05:41:00.569Z,56.13
2018-08-19T05:43:30.367Z,52.87
2018-08-19T05:46:00.680Z,48.82
2018-08-19T05:48:30.279Z,44.84
2018-08-19T05:50:59.857Z,42.80
2018-08-19T05:53:29.116Z,42.65
2018-08-19T05:55:58.350Z,42.19
2018-08-19T05:58:27.612Z,41.86
2018-08-19T06:01:01.431Z,39.64
2018-08-19T06:03:30.813Z,37.04
2018-08-19T06:06:00.114Z,36.05
2018-08-19T06:08:29.385Z,34.60
2018-08-19T06:10:58.621Z,32.81
2018-08-19T06:13:28.965Z,33.42
2018-08-19T06:15:58.234Z,32.17
2018-08-19T06:18:27.343Z,30.87
2018-08-19T06:20:56.602Z,29.84
2018-08-19T06:23:25.539Z,30.08
2018-08-19T06:25:54.504Z,29.15
2018-08-19T06:28:23.440Z,29.77
2018-08-19T06:30:52.389Z,29.63
2018-08-19T06:33:21.354Z,28.30
2018-08-19T06:35:50.280Z,27.64
2018-08-19T06:38:19.376Z,27.09
2018-08-19T06:40:48.345Z,26.46
2018-08-19T06:43:17.354Z,25.98
2018-08-19T06:45:46.406Z,26.05
2018-08-19T06:48:15.337Z,25.77
2018-08-19T06:50:44.309Z,24.73
2018-08-19T06:53:18.640Z,24.06
2018-08-19T06:55:47.636Z,24.57
2018-08-19T06:58:16.564Z,23.25
2018-08-19T07:00:45.493Z,22.51
2018-08-19T07:03:14.473Z,23.53
2018-08-19T07:05:43.727Z,23.55
2018-08-19T07:08:13.833Z,22.68
2018-08-19T07:10:42.936Z,22.75
2018-08-19T07:13:13.337Z,23.12
2018-08-19T07:15:43.624Z,23.64
2018-08-19T07:18:14.342Z,24.56
2018-08-19T07:20:44.009Z,26.94
2018-08-19T07:23:13.428Z,28.48
2018-08-19T07:25:43.541Z,29.96
2018-08-19T07:28:13.652Z,31.10
2018-08-19T07:30:43.125Z,31.37
2018-08-19T07:33:13.041Z,32.88
2018-08-19T07:35:42.336Z,33.90
2018-08-19T07:38:12.469Z,34.75
2018-08-19T07:40:41.890Z,34.69
2018-08-19T07:43:11.188Z,35.90
2018-08-19T07:45:41.285Z,36.51
2018-08-19T07:48:10.535Z,36.59
2018-08-19T07:50:39.766Z,36.93
2018-08-19T07:53:09.053Z,37.64
2018-08-19T07:55:38.495Z,38.66
2018-08-19T07:58:08.142Z,35.61
2018-08-19T08:00:39.744Z,32.84
2018-08-19T08:03:09.228Z,30.35
2018-08-19T08:05:43.710Z,28.54
2018-08-19T08:08:12.932Z,27.22
2018-08-19T08:10:41.878Z,26.18
2018-08-19T08:13:11.883Z,26.16
2018-08-19T08:15:46.340Z,25.62
2018-08-19T08:18:15.612Z,25.19
2018-08-19T08:23:21.903Z,22.52
2018-08-19T08:25:50.888Z,22.36
2018-08-19T08:28:19.992Z,23.37
2018-08-19T08:30:48.899Z,22.55
2018-08-19T08:33:19.441Z,22.09
2018-08-19T08:35:54.776Z,24.50
2018-08-19T08:38:23.708Z,23.16
2018-08-19T08:40:53.113Z,23.23
2018-08-19T08:43:22.512Z,21.72
2018-08-19T08:45:51.687Z,21.65
2018-08-19T08:48:21.050Z,21.38
2018-08-19T08:50:50.029Z,22.30
2018-08-19T08:53:19.045Z,21.77
2018-08-19T08:55:48.254Z,20.91
2018-08-19T08:58:17.580Z,20.84
2018-08-19T09:00:47.486Z,20.38
2018-08-19T09:03:16.477Z,21.14
2018-08-19T09:05:45.585Z,22.52
2018-08-19T09:08:14.588Z,23.25
2018-08-19T09:10:43.531Z,25.52
2018-08-19T09:13:12.566Z,26.20
2018-08-19T09:15:41.821Z,27.00
2018-08-19T09:18:11.345Z,28.30
2018-08-19T09:20:40.563Z,28.56
2018-08-19T09:23:09.865Z,29.26
2018-08-19T09:25:39.228Z,30.35
2018-08-19T09:28:08.468Z,30.73
2018-08-19T09:30:41.269Z,31.84
2018-08-19T09:33:10.759Z,31.97
2018-08-19T09:35:41.168Z,32.43
2018-08-19T09:38:14.991Z,32.70
2018-08-19T09:40:44.562Z,31.68
2018-08-19T09:43:14.932Z,32.93
2018-08-19T09:45:44.525Z,31.88
2018-08-19T09:48:14.279Z,31.69
2018-08-19T09:50:44.093Z,33.48
2018-08-19T09:53:13.282Z,32.82
2018-08-19T09:55:44.719Z,33.08
2018-08-19T09:58:17.866Z,33.36
2018-08-19T10:00:52.704Z,34.29
2018-08-19T10:03:21.913Z,34.52
2018-08-19T10:05:51.186Z,34.58
2018-08-19T10:08:22.169Z,33.93
2018-08-19T10:10:51.769Z,33.78
2018-08-19T10:13:20.990Z,34.16
2018-08-19T10:15:50.209Z,34.18
2018-08-19T10:18:19.424Z,34.17
2018-08-19T10:20:48.617Z,35.42
2018-08-19T10:23:17.781Z,34.33
2018-08-19T10:25:47.006Z,34.79
2018-08-19T10:28:16.335Z,34.86
2018-08-19T10:30:50.646Z,35.74
2018-08-19T10:33:21.284Z,33.79
2018-08-19T10:35:50.540Z,33.92
2018-08-19T10:38:19.742Z,34.28
2018-08-19T10:40:57.533Z,33.85
2018-08-19T10:43:29.611Z,33.50
2018-08-19T10:45:58.883Z,33.77
2018-08-19T10:48:28.175Z,33.95
2018-08-19T10:50:57.368Z,33.25
2018-08-19T10:53:28.771Z,32.90
2018-08-19T10:56:00.793Z,33.63
2018-08-19T10:58:30.520Z,32.68
2018-08-19T11:00:59.871Z,33.71
2018-08-19T11:03:30.409Z,33.36
2018-08-19T11:05:59.637Z,34.75
2018-08-19T11:08:29.194Z,34.36
2018-08-19T11:11:00.101Z,34.55
2018-08-19T11:13:29.391Z,33.63
2018-08-19T11:15:59.327Z,33.68
2018-08-19T11:18:41.476Z,33.15
2018-08-19T11:21:20.885Z,34.26
2018-08-19T11:23:50.060Z,36.15
2018-08-19T11:26:19.289Z,36.49
2018-08-19T11:28:50.720Z,35.90
2018-08-19T11:31:26.136Z,36.43
2018-08-19T11:33:56.947Z,35.78
2018-08-19T11:36:32.737Z,34.81
2018-08-19T11:39:02.112Z,36.15
2018-08-19T11:41:33.337Z,36.04
2018-08-19T11:44:08.172Z,34.32
2018-08-19T11:46:38.176Z,35.38
2018-08-19T11:49:10.245Z,34.60
2018-08-19T11:51:51.084Z,34.05
2018-08-19T11:54:21.923Z,32.66
2018-08-19T11:56:58.341Z,33.93
2018-08-19T11:59:36.815Z,33.76
2018-08-19T12:02:07.939Z,32.92
2018-08-19T12:04:37.511Z,33.38
2018-08-19T12:07:06.813Z,32.92
2018-08-19T12:09:36.211Z,33.09
2018-08-19T12:12:06.040Z,32.92
2018-08-19T12:14:36.981Z,32.98
2018-08-19T12:17:09.467Z,33.31
2018-08-19T12:19:40.510Z,33.67
2018-08-19T12:22:10.077Z,33.35
2018-08-19T12:24:41.232Z,33.12
2018-08-19T12:27:12.726Z,33.95
2018-08-19T12:29:42.869Z,34.25
2018-08-19T12:32:17.478Z,33.11
2018-08-19T12:34:48.104Z,34.82
2018-08-19T12:37:19.038Z,34.24
2018-08-19T12:39:48.828Z,35.52
2018-08-19T12:42:18.450Z,35.95
2018-08-19T12:44:54.395Z,34.92
2018-08-19T12:47:25.888Z,35.99
2018-08-19T12:49:59.659Z,34.81
2018-08-19T12:52:30.087Z,36.28
2018-08-19T12:55:17.889Z,37.30
2018-08-19T12:57:51.425Z,36.41
2018-08-19T13:00:25.577Z,36.83
2018-08-19T13:02:55.071Z,35.22
2018-08-19T13:05:24.676Z,35.65
2018-08-19T13:07:54.072Z,36.40
2018-08-19T13:10:23.793Z,35.32
2018-08-19T13:12:54.293Z,37.12
2018-08-19T13:15:24.726Z,38.11
2018-08-19T13:17:54.032Z,35.96
2018-08-19T13:20:23.322Z,37.06
2018-08-19T13:22:58.008Z,36.33
2018-08-19T13:25:28.094Z,35.37
2018-08-19T13:27:58.154Z,35.84
2018-08-19T13:30:27.650Z,35.33
2018-08-19T13:32:56.920Z,36.12
2018-08-19T13:35:26.443Z,37.27
2018-08-19T13:37:55.675Z,36.55
2018-08-19T13:40:25.770Z,38.12
2018-08-19T13:42:54.986Z,38.55
2018-08-19T13:45:26.681Z,36.29
2018-08-19T13:47:56.630Z,37.29
2018-08-19T13:50:26.299Z,35.72
2018-08-19T13:52:55.585Z,35.36
2018-08-19T13:55:24.812Z,33.76
2018-08-19T13:57:54.090Z,34.69
2018-08-19T14:00:24.341Z,34.33
2018-08-19T14:02:53.580Z,34.06
2018-08-19T14:05:23.206Z,35.91
2018-08-19T14:07:52.490Z,36.54
2018-08-19T14:10:21.828Z,35.79
2018-08-19T14:12:51.072Z,37.02
2018-08-19T14:15:20.329Z,35.99
2018-08-19T14:17:49.642Z,34.78
2018-08-19T14:20:18.936Z,36.11
2018-08-19T14:22:48.190Z,36.96
2018-08-19T14:25:17.438Z,35.52
2018-08-19T14:27:46.727Z,37.18
2018-08-19T14:30:16.022Z,35.79
2018-08-19T14:32:46.689Z,36.38
2018-08-19T14:35:15.937Z,35.41
2018-08-19T14:37:48.909Z,36.00
2018-08-19T14:40:19.638Z,36.75
2018-08-19T14:42:49.072Z,36.44
2018-08-19T14:45:18.395Z,37.10
2018-08-19T14:47:47.675Z,35.17
2018-08-19T14:50:19.764Z,35.37
2018-08-19T14:52:49.450Z,35.12
2018-08-19T14:55:19.012Z,36.88
2018-08-19T14:57:48.259Z,36.91
2018-08-19T15:00:18.300Z,36.48
2018-08-19T15:02:47.495Z,35.45
2018-08-19T15:05:19.253Z,35.74
2018-08-19T15:07:48.979Z,36.77
2018-08-19T15:10:22.924Z,37.25
2018-08-19T15:12:52.636Z,35.57
2018-08-19T15:15:21.917Z,36.26
2018-08-19T15:17:56.575Z,36.57
2018-08-19T15:20:33.040Z,36.56
2018-08-19T15:23:20.764Z,37.78
2018-08-19T15:25:49.956Z,37.37
2018-08-19T15:28:19.390Z,37.56
2018-08-19T15:30:48.596Z,36.67
2018-08-19T15:33:17.826Z,36.66
2018-08-19T15:35:47.256Z,36.50
2018-08-19T15:38:16.429Z,36.63
2018-08-19T15:40:49.900Z,36.88
2018-08-19T15:43:19.421Z,37.32
2018-08-19T15:45:48.796Z,37.05
2018-08-19T15:48:18.829Z,36.88
2018-08-19T15:50:48.034Z,37.18
2018-08-19T15:53:19.101Z,38.17
2018-08-19T15:55:48.398Z,37.53
2018-08-19T15:58:17.608Z,36.25
2018-08-19T16:00:46.811Z,37.84
2018-08-19T16:03:16.033Z,36.38
2018-08-19T16:05:45.268Z,36.14
2018-08-19T16:08:14.502Z,37.41
2018-08-19T16:10:43.990Z,38.20
2018-08-19T16:13:13.492Z,37.52
2018-08-19T16:15:42.692Z,37.35
2018-08-19T16:18:12.229Z,38.19
2018-08-19T16:20:44.264Z,38.96
2018-08-19T16:23:13.617Z,38.65
2018-08-19T16:25:42.818Z,39.33
2018-08-19T16:28:12.233Z,40.01
2018-08-19T16:30:41.418Z,40.21
2018-08-19T16:33:10.635Z,40.95
2018-08-19T16:35:39.883Z,39.07
2018-08-19T16:38:09.111Z,39.60
2018-08-19T16:40:38.523Z,41.72
2018-08-19T16:43:07.752Z,40.68
2018-08-19T16:45:37.308Z,42.55
2018-08-19T16:50:57.784Z,42.05
2018-08-19T16:53:27.453Z,41.98
2018-08-19T16:55:56.661Z,40.76
2018-08-19T16:58:25.884Z,42.91
2018-08-19T17:00:55.417Z,43.57
2018-08-19T17:03:36.184Z,43.83
2018-08-19T17:06:08.418Z,43.02
2018-08-19T17:08:38.457Z,43.15
2018-08-19T17:11:08.828Z,43.27
2018-08-19T17:13:38.183Z,41.35
2018-08-19T17:16:07.945Z,41.96
2018-08-19T17:18:37.683Z,41.87
2018-08-19T17:21:07.257Z,42.73
2018-08-19T17:23:36.849Z,41.68
2018-08-19T17:26:11.874Z,42.88
2018-08-19T17:28:41.238Z,42.55
2018-08-19T17:31:10.449Z,42.29
2018-08-19T17:33:39.613Z,42.91
2018-08-19T17:36:09.243Z,43.25
2018-08-19T17:38:39.185Z,43.44
2018-08-19T17:41:08.386Z,44.34
2018-08-19T17:43:41.813Z,45.26
2018-08-19T17:46:13.040Z,46.13
2018-08-19T17:48:43.848Z,47.42
2018-08-19T17:51:25.123Z,47.45
2018-08-19T17:53:54.301Z,47.70
2018-08-19T17:56:23.505Z,48.71
2018-08-19T17:58:52.769Z,49.09
2018-08-19T18:01:22.490Z,49.48
2018-08-19T18:03:51.694Z,48.16
2018-08-19T18:06:20.905Z,48.52
2018-08-19T18:08:51.264Z,49.85
2018-08-19T18:11:21.746Z,49.20
2018-08-19T18:13:51.052Z,49.47
2018-08-19T18:16:20.864Z,49.88
2018-08-19T18:18:50.334Z,49.80
2018-08-19T18:21:19.541Z,49.72
2018-08-19T18:23:49.610Z,50.17
2018-08-19T18:26:18.858Z,51.35
2018-08-19T18:28:48.862Z,51.08
2018-08-19T18:31:22.282Z,52.36
2018-08-19T18:33:54.538Z,51.68
2018-08-19T18:36:25.150Z,51.51
2018-08-19T18:38:54.430Z,52.20
2018-08-19T18:41:39.647Z,51.89
2018-08-19T18:44:10.228Z,52.38
2018-08-19T18:46:39.555Z,51.59
2018-08-19T18:49:12.577Z,52.70
2018-08-19T18:51:43.555Z,51.85
2018-08-19T18:54:21.332Z,53.03
2018-08-19T18:56:50.549Z,53.34
2018-08-19T18:59:20.276Z,53.55
2018-08-19T19:01:49.561Z,53.22
2018-08-19T19:04:18.817Z,53.31
2018-08-19T19:06:48.018Z,53.52
2018-08-19T19:09:17.212Z,54.04
2018-08-19T19:11:49.188Z,53.68
2018-08-19T19:14:18.487Z,53.40
2018-08-19T19:16:50.108Z,54.19
2018-08-19T19:19:19.408Z,54.91
2018-08-19T19:21:52.700Z,54.67
2018-08-19T19:24:26.496Z,55.80
2018-08-19T19:26:55.720Z,56.09
2018-08-19T19:29:27.653Z,56.10
2018-08-19T19:31:59.109Z,55.59
2018-08-19T19:34:30.925Z,56.72
2018-08-19T19:37:00.163Z,57.13
2018-08-19T19:39:29.376Z,56.29
2018-08-19T19:42:02.708Z,55.45
2018-08-19T19:44:36.069Z,57.13
2018-08-19T19:47:06.707Z,56.76
2018-08-19T19:49:43.648Z,56.79
2018-08-19T19:52:12.993Z,57.34
2018-08-19T19:54:42.220Z,57.33
2018-08-19T19:57:11.449Z,57.95
2018-08-19T19:59:40.664Z,57.08
2018-08-19T20:02:16.700Z,57.77
2018-08-19T20:04:46.024Z,58.07
2018-08-19T20:07:15.205Z,58.02
2018-08-19T20:09:44.605Z,58.27
2018-08-19T20:12:18.083Z,59.19
2018-08-19T20:14:51.117Z,58.59
2018-08-19T20:17:21.115Z,58.36
2018-08-19T20:19:50.502Z,59.87
2018-08-19T20:22:20.126Z,59.23
2018-08-19T20:24:49.309Z,59.91
2018-08-19T20:27:18.532Z,59.79
2018-08-19T20:29:52.542Z,59.42
2018-08-19T20:32:22.467Z,59.49
2018-08-19T20:34:51.967Z,59.48
2018-08-19T20:37:23.952Z,59.93
2018-08-19T20:39:53.779Z,59.44
2018-08-19T20:42:23.082Z,59.66
2018-08-19T20:44:52.658Z,59.39
2018-08-19T20:47:21.858Z,59.85
2018-08-19T20:49:51.396Z,60.46
2018-08-19T20:52:34.308Z,60.70
2018-08-19T20:55:03.841Z,60.07
2018-08-19T20:57:34.181Z,60.48
2018-08-19T21:00:03.679Z,59.57
2018-08-19T21:02:33.020Z,60.19
2018-08-19T21:05:02.324Z,60.09
2018-08-19T21:07:31.567Z,59.98
2018-08-19T21:10:00.761Z,59.83
2018-08-19T21:12:29.999Z,58.98
2018-08-19T21:14:59.170Z,58.68
2018-08-19T21:17:29.737Z,58.08
2018-08-19T21:19:58.947Z,58.14
2018-08-19T21:22:28.148Z,57.06
2018-08-19T21:24:57.395Z,56.55
2018-08-19T21:27:26.602Z,56.35
2018-08-19T21:29:55.910Z,55.97
2018-08-19T21:32:25.393Z,56.27
2018-08-19T21:34:54.585Z,56.25
2018-08-19T21:37:27.995Z,57.26
2018-08-19T21:39:57.213Z,56.34
2018-08-19T21:42:26.805Z,57.15
2018-08-19T21:44:56.027Z,56.88
2018-08-19T21:47:25.242Z,56.61
2018-08-19T21:49:58.674Z,57.25
2018-08-19T21:52:27.879Z,56.63
2018-08-19T21:54:57.060Z,57.27
2018-08-19T21:57:26.274Z,57.19
2018-08-19T21:59:55.464Z,56.40
2018-08-19T22:03:31.500Z,57.25
2018-08-19T22:06:03.801Z,57.40
2018-08-19T22:08:33.367Z,56.87
2018-08-19T22:11:02.568Z,56.79
2018-08-19T22:13:31.764Z,57.18
2018-08-19T22:16:01.005Z,56.86
2018-08-19T22:18:31.460Z,57.45
2018-08-19T22:21:23.528Z,57.84
2018-08-19T22:23:56.008Z,57.91
2018-08-19T22:26:25.260Z,58.20
2018-08-19T22:29:08.685Z,58.01
2018-08-19T22:31:38.396Z,58.11
2018-08-19T22:34:07.600Z,57.95
2018-08-19T22:36:36.985Z,58.43
2018-08-19T22:39:08.760Z,59.02
2018-08-19T22:41:37.526Z,59.05
2018-08-19T22:44:06.195Z,58.95
2018-08-19T22:46:35.380Z,59.23
2018-08-19T22:49:06.134Z,59.04
2018-08-19T22:51:35.553Z,58.68
2018-08-19T22:54:04.219Z,59.68
2018-08-19T22:56:33.434Z,59.64
2018-08-19T22:59:02.193Z,58.65
2018-08-19T23:01:37.056Z,59.47
2018-08-19T23:04:06.486Z,59.24
2018-08-19T23:06:35.834Z,60.40
2018-08-19T23:09:06.628Z,59.46
2018-08-19T23:11:41.683Z,60.15
2018-08-19T23:14:22.210Z,60.25
2018-08-19T23:16:51.694Z,60.36
2018-08-19T23:19:22.533Z,60.16
2018-08-19T23:21:52.254Z,60.48
2018-08-19T23:24:21.439Z,60.43
2018-08-19T23:26:51.134Z,60.98
2018-08-19T23:29:20.404Z,60.61
2018-08-19T23:31:49.627Z,60.36
2018-08-19T23:34:19.108Z,60.58
2018-08-19T23:36:48.429Z,61.13
2018-08-19T23:39:17.067Z,60.48
2018-08-19T23:41:46.276Z,61.33
2018-08-19T23:44:15.496Z,60.61
2018-08-19T23:46:44.822Z,61.13
2018-08-19T23:49:13.470Z,60.97
2018-08-19T23:51:42.752Z,61.13
2018-08-19T23:54:11.932Z,61.67
2018-08-19T23:56:41.133Z,61.94
2018-08-19T23:59:09.790Z,61.72
